createdAt,value
2023-04-11T00:01:34.991Z,5.90
2023-04-11T00:04:02.090Z,5.88
2023-04-11T00:06:29.160Z,5.40
2023-04-11T00:08:56.854Z,5.95
2023-04-11T00:11:24.153Z,5.68
2023-04-11T00:13:51.681Z,5.53
2023-04-11T00:16:19.506Z,5.93
2023-04-11T00:18:47.141Z,5.47
2023-04-11T00:21:13.938Z,4.95
2023-04-11T00:23:41.175Z,4.88
2023-04-11T00:26:08.406Z,4.70
2023-04-11T00:28:35.900Z,4.97
2023-04-11T00:31:02.988Z,5.10
2023-04-11T00:33:29.827Z,5.10
2023-04-11T00:35:56.631Z,5.07
2023-04-11T00:38:23.915Z,4.53
2023-04-11T00:40:50.694Z,4.90
2023-04-11T00:43:17.454Z,5.45
2023-04-11T00:45:44.417Z,5.00
2023-04-11T00:48:11.745Z,4.63
2023-04-11T00:50:42.850Z,4.32
2023-04-11T00:53:14.207Z,4.65
2023-04-11T00:55:41.133Z,4.47
2023-04-11T00:58:08.764Z,4.50
2023-04-11T01:00:35.611Z,4.95
2023-04-11T01:03:02.809Z,4.75
2023-04-11T01:05:33.143Z,4.82
2023-04-11T01:08:00.659Z,5.57
2023-04-11T01:10:30.699Z,5.30
2023-04-11T01:13:00.686Z,5.18
2023-04-11T01:15:27.967Z,5.05
2023-04-11T01:17:55.549Z,4.90
2023-04-11T01:20:22.988Z,5.15
2023-04-11T01:22:50.894Z,5.20
2023-04-11T01:25:22.314Z,5.22
2023-04-11T01:27:49.424Z,5.40
2023-04-11T01:30:16.685Z,5.50
2023-04-11T01:32:44.002Z,5.57
2023-04-11T01:35:12.627Z,4.63
2023-04-11T01:37:39.842Z,4.95
2023-04-11T01:40:07.630Z,5.10
2023-04-11T01:42:35.684Z,4.63
2023-04-11T01:45:04.270Z,4.93
2023-04-11T01:47:31.910Z,4.60
2023-04-11T01:49:59.298Z,5.53
2023-04-11T01:52:26.458Z,5.40
2023-04-11T01:54:53.259Z,4.90
2023-04-11T01:57:19.987Z,5.18
2023-04-11T01:59:47.364Z,5.05
2023-04-11T02:02:14.191Z,5.45
2023-04-11T02:04:42.586Z,5.43
2023-04-11T02:07:09.345Z,5.43
2023-04-11T02:09:37.093Z,5.35
2023-04-11T02:12:04.241Z,5.60
2023-04-11T02:14:41.990Z,5.13
2023-04-11T02:17:11.175Z,5.30
2023-04-11T02:19:41.083Z,5.18
2023-04-11T02:22:11.046Z,5.43
2023-04-11T02:24:38.233Z,5.15
2023-04-11T02:27:06.108Z,5.88
2023-04-11T02:29:33.915Z,5.47
2023-04-11T02:32:02.064Z,5.35
2023-04-11T02:34:29.020Z,5.93
2023-04-11T02:36:55.786Z,5.43
2023-04-11T02:39:26.354Z,5.45
2023-04-11T02:41:53.138Z,4.93
2023-04-11T02:44:20.053Z,5.57
2023-04-11T02:46:46.963Z,5.72
2023-04-11T02:49:13.886Z,5.35
2023-04-11T02:51:41.134Z,5.28
2023-04-11T02:54:08.245Z,5.72
2023-04-11T02:56:38.667Z,5.53
2023-04-11T02:59:06.721Z,5.78
2023-04-11T03:01:33.898Z,5.57
2023-04-11T03:04:01.341Z,5.00
2023-04-11T03:06:29.214Z,5.82
2023-04-11T03:08:56.200Z,6.30
2023-04-11T03:11:23.290Z,5.93
2023-04-11T03:13:50.384Z,6.32
2023-04-11T03:16:17.131Z,5.97
2023-04-11T03:18:43.946Z,6.63
2023-04-11T03:21:11.339Z,6.13
2023-04-11T03:23:38.866Z,5.97
2023-04-11T03:26:06.899Z,6.25
2023-04-11T03:28:33.946Z,6.43
2023-04-11T03:31:00.810Z,6.68
2023-04-11T03:33:27.721Z,6.72
2023-04-11T03:35:54.943Z,6.43
2023-04-11T03:38:21.772Z,7.50
2023-04-11T03:40:48.636Z,7.20
2023-04-11T03:43:16.772Z,7.50
2023-04-11T03:45:43.840Z,7.43
2023-04-11T03:48:10.895Z,7.45
2023-04-11T03:50:37.975Z,7.25
2023-04-11T03:53:05.737Z,7.60
2023-04-11T03:55:33.213Z,8.10
2023-04-11T03:58:00.440Z,7.05
2023-04-11T04:00:28.351Z,7.85
2023-04-11T04:02:55.318Z,8.18
2023-04-11T04:05:22.341Z,8.10
2023-04-11T04:07:49.129Z,7.63
2023-04-11T04:10:16.256Z,7.40
2023-04-11T04:12:43.530Z,7.70
2023-04-11T04:15:11.344Z,8.15
2023-04-11T04:17:38.172Z,8.15
2023-04-11T04:20:06.921Z,8.00
2023-04-11T04:22:33.920Z,7.78
2023-04-11T04:25:01.529Z,7.65
2023-04-11T04:27:28.416Z,6.85
2023-04-11T04:30:02.467Z,8.77
2023-04-11T04:32:31.197Z,8.93
2023-04-11T04:34:58.855Z,8.50
2023-04-11T04:37:27.148Z,9.13
2023-04-11T04:39:55.848Z,9.23
2023-04-11T04:42:26.362Z,8.73
2023-04-11T04:44:54.542Z,8.95
2023-04-11T04:47:29.118Z,9.38
2023-04-11T04:49:56.505Z,9.05
2023-04-11T04:52:27.436Z,7.97
2023-04-11T04:54:57.893Z,8.25
2023-04-11T04:57:29.310Z,9.40
2023-04-11T04:59:57.976Z,7.95
2023-04-11T05:02:28.411Z,8.27
2023-04-11T05:04:55.740Z,8.50
2023-04-11T05:07:22.621Z,9.43
2023-04-11T05:09:49.799Z,8.70
2023-04-11T05:12:17.299Z,8.85
2023-04-11T05:14:44.589Z,8.57
2023-04-11T05:17:11.337Z,8.88
2023-04-11T05:19:38.067Z,8.88
2023-04-11T05:22:05.539Z,9.15
2023-04-11T05:24:32.303Z,8.38
2023-04-11T05:27:00.479Z,8.95
2023-04-11T05:29:27.307Z,8.52
2023-04-11T05:31:54.121Z,8.65
2023-04-11T05:34:21.238Z,8.73
2023-04-11T05:36:48.225Z,8.45
2023-04-11T05:39:15.017Z,8.85
2023-04-11T05:41:41.986Z,8.70
2023-04-11T05:44:08.779Z,9.05
2023-04-11T05:46:36.929Z,8.27
2023-04-11T05:49:03.855Z,9.07
2023-04-11T05:51:30.798Z,9.10
2023-04-11T05:53:58.139Z,8.40
2023-04-11T05:56:25.252Z,9.15
2023-04-11T05:58:52.313Z,8.35
2023-04-11T06:01:19.565Z,7.72
2023-04-11T06:03:48.046Z,8.50
2023-04-11T06:06:15.076Z,8.25
2023-04-11T06:08:42.954Z,8.13
2023-04-11T06:11:11.115Z,8.05
2023-04-11T06:13:37.904Z,8.18
2023-04-11T06:16:06.452Z,8.25
2023-04-11T06:18:33.244Z,7.97
2023-04-11T06:20:59.969Z,7.80
2023-04-11T06:23:26.755Z,8.20
2023-04-11T06:25:53.553Z,7.80
2023-04-11T06:28:20.351Z,7.68
2023-04-11T06:30:47.120Z,6.65
2023-04-11T06:33:13.899Z,6.93
2023-04-11T06:35:40.833Z,6.93
2023-04-11T06:38:07.609Z,6.57
2023-04-11T06:40:34.511Z,6.05
2023-04-11T06:43:01.849Z,6.15
2023-04-11T06:45:29.093Z,7.00
2023-04-11T06:47:56.257Z,6.43
2023-04-11T06:50:23.152Z,7.13
2023-04-11T06:52:49.981Z,7.20
2023-04-11T06:55:17.163Z,6.53
2023-04-11T06:57:44.417Z,5.82
2023-04-11T07:00:13.074Z,6.78
2023-04-11T07:02:40.068Z,6.68
2023-04-11T07:05:09.377Z,6.45
2023-04-11T07:07:36.421Z,6.80
2023-04-11T07:10:05.047Z,6.88
2023-04-11T07:12:31.920Z,7.05
2023-04-11T07:14:58.726Z,7.03
2023-04-11T07:17:25.490Z,6.93
2023-04-11T07:19:52.327Z,6.93
2023-04-11T07:22:19.809Z,6.40
2023-04-11T07:24:46.744Z,5.68
2023-04-11T07:27:14.368Z,5.60
2023-04-11T07:29:42.174Z,5.20
2023-04-11T07:32:08.924Z,3.90
2023-04-11T07:34:35.685Z,3.45
2023-04-11T07:37:02.434Z,3.33
2023-04-11T07:39:29.359Z,3.25
2023-04-11T07:41:56.760Z,3.45
2023-04-11T07:44:24.114Z,3.20
2023-04-11T07:46:51.212Z,3.05
2023-04-11T07:49:17.964Z,2.90
2023-04-11T07:51:44.770Z,3.00
2023-04-11T07:54:12.294Z,2.83
2023-04-11T07:56:39.770Z,2.92
2023-04-11T07:59:06.548Z,2.30
2023-04-11T08:01:33.761Z,2.53
2023-04-11T08:04:01.002Z,1.88
2023-04-11T08:06:29.700Z,1.88
2023-04-11T08:08:58.551Z,1.90
2023-04-11T08:11:25.402Z,1.70
2023-04-11T08:13:52.192Z,1.33
2023-04-11T08:16:19.042Z,1.10
2023-04-11T08:18:45.982Z,1.20
2023-04-11T08:21:13.087Z,1.10
2023-04-11T08:23:42.224Z,1.02
2023-04-11T08:26:10.628Z,1.15
2023-04-11T08:28:37.494Z,1.00
2023-04-11T08:31:05.316Z,1.00
2023-04-11T08:33:33.412Z,0.85
2023-04-11T08:36:00.552Z,1.10
2023-04-11T08:38:27.382Z,0.95
2023-04-11T08:40:55.227Z,0.90
2023-04-11T08:43:22.417Z,1.00
2023-04-11T08:45:49.183Z,0.95
2023-04-11T08:48:16.660Z,0.93
2023-04-11T08:50:44.651Z,1.00
2023-04-11T08:53:12.078Z,0.85
2023-04-11T08:55:46.929Z,1.10
2023-04-11T08:58:14.744Z,0.95
2023-04-11T09:00:41.624Z,0.82
2023-04-11T09:03:10.421Z,1.10
2023-04-11T09:05:38.932Z,1.00
2023-04-11T09:08:08.027Z,0.85
2023-04-11T09:10:36.056Z,0.73
2023-04-11T09:13:21.201Z,1.00
2023-04-11T09:15:48.799Z,0.88
2023-04-11T09:18:35.896Z,0.90
2023-04-11T09:21:05.514Z,1.00
2023-04-11T09:23:32.506Z,1.13
2023-04-11T09:25:59.421Z,1.00
2023-04-11T09:28:26.166Z,1.17
2023-04-11T09:30:54.118Z,1.00
2023-04-11T09:33:31.506Z,1.20
2023-04-11T09:35:58.361Z,0.88
2023-04-11T09:38:36.326Z,1.02
2023-04-11T09:41:05.412Z,1.20
2023-04-11T09:43:51.324Z,1.15
2023-04-11T09:46:21.139Z,1.13
2023-04-11T09:48:50.141Z,1.30
2023-04-11T09:53:49.848Z,1.13
2023-04-11T09:56:17.784Z,0.95
2023-04-11T09:58:45.554Z,1.10
2023-04-11T10:01:14.069Z,1.02
2023-04-11T10:03:41.763Z,0.80
2023-04-11T10:06:31.378Z,0.77
2023-04-11T10:09:12.747Z,0.80
2023-04-11T10:11:46.021Z,1.08
2023-04-11T10:14:37.431Z,0.90
2023-04-11T10:17:23.633Z,0.90
2023-04-11T10:19:56.226Z,1.10
2023-04-11T10:22:41.738Z,1.00
2023-04-11T10:25:16.706Z,0.88
2023-04-11T10:28:00.657Z,1.00
2023-04-11T10:30:39.853Z,0.82
2023-04-11T10:33:11.608Z,1.20
2023-04-11T10:36:10.070Z,1.02
2023-04-11T10:38:37.325Z,1.17
2023-04-11T10:41:33.995Z,0.90
2023-04-11T10:44:14.101Z,1.70
2023-04-11T10:46:46.656Z,0.80
2023-04-11T10:49:35.388Z,0.85
2023-04-11T10:52:23.584Z,0.95
2023-04-11T10:54:52.980Z,1.10
2023-04-11T10:57:21.122Z,1.10
2023-04-11T10:59:47.830Z,1.17
2023-04-11T11:02:15.621Z,1.00
2023-04-11T11:04:43.243Z,1.33
2023-04-11T11:07:15.604Z,0.90
2023-04-11T11:09:48.806Z,0.90
2023-04-11T11:12:16.871Z,1.80
2023-04-11T11:14:46.016Z,1.10
2023-04-11T11:17:15.536Z,1.10
2023-04-11T11:19:46.644Z,1.42
2023-04-11T11:22:18.271Z,1.20
2023-04-11T11:24:45.239Z,1.83
2023-04-11T11:27:20.459Z,1.10
2023-04-11T11:29:47.378Z,1.20
2023-04-11T11:32:32.710Z,1.45
2023-04-11T11:35:00.151Z,1.08
2023-04-11T11:37:27.011Z,1.17
2023-04-11T11:39:54.087Z,1.10
2023-04-11T11:42:21.139Z,1.13
2023-04-11T11:44:48.109Z,0.90
2023-04-11T11:47:18.019Z,1.00
2023-04-11T11:49:55.479Z,1.13
2023-04-11T11:52:34.275Z,1.13
2023-04-11T11:55:06.134Z,1.10
2023-04-11T11:57:34.381Z,1.38
2023-04-11T12:00:05.688Z,1.45
2023-04-11T12:02:36.013Z,1.40
2023-04-11T12:05:06.310Z,1.17
2023-04-11T12:07:36.749Z,1.27
2023-04-11T12:10:09.067Z,1.15
2023-04-11T12:12:37.579Z,1.08
2023-04-11T12:15:18.551Z,1.20
2023-04-11T12:17:53.392Z,0.93
2023-04-11T12:20:27.361Z,0.95
2023-04-11T12:22:55.400Z,1.20
2023-04-11T12:25:22.986Z,1.02
2023-04-11T12:27:49.776Z,1.10
2023-04-11T12:30:16.770Z,0.98
2023-04-11T12:32:44.645Z,0.65
2023-04-11T12:35:12.572Z,0.88
2023-04-11T12:37:40.062Z,0.93
2023-04-11T12:40:12.070Z,0.80
2023-04-11T12:42:53.343Z,1.02
2023-04-11T12:45:23.167Z,0.90
2023-04-11T12:47:50.202Z,1.05
2023-04-11T12:50:17.673Z,0.70
2023-04-11T12:52:44.642Z,0.80
2023-04-11T12:55:13.348Z,0.73
2023-04-11T12:57:41.470Z,0.73
2023-04-11T13:00:10.579Z,0.80
2023-04-11T13:02:43.097Z,1.10
2023-04-11T13:05:14.107Z,0.68
2023-04-11T13:07:44.585Z,1.02
2023-04-11T13:10:11.895Z,0.82
2023-04-11T13:12:44.242Z,1.15
2023-04-11T13:15:13.130Z,0.88
2023-04-11T13:17:40.195Z,1.15
2023-04-11T13:20:09.905Z,1.10
2023-04-11T13:22:41.338Z,1.02
2023-04-11T13:25:09.660Z,0.75
2023-04-11T13:27:37.631Z,1.05
2023-04-11T13:30:04.948Z,0.90
2023-04-11T13:32:32.352Z,0.82
2023-04-11T13:34:59.384Z,1.25
2023-04-11T13:37:26.487Z,1.10
2023-04-11T13:39:53.248Z,1.00
2023-04-11T13:42:21.710Z,0.90
2023-04-11T13:44:48.566Z,1.10
2023-04-11T13:47:16.171Z,1.58
2023-04-11T13:49:42.961Z,1.17
2023-04-11T13:52:10.004Z,1.20
2023-04-11T13:54:39.057Z,0.98
2023-04-11T13:57:09.238Z,0.98
2023-04-11T13:59:36.269Z,0.70
2023-04-11T14:02:03.159Z,1.15
2023-04-11T14:04:30.820Z,0.93
2023-04-11T14:06:57.640Z,0.90
2023-04-11T14:09:24.440Z,0.70
2023-04-11T14:11:51.259Z,0.90
2023-04-11T14:14:17.990Z,0.80
2023-04-11T14:16:44.771Z,0.57
2023-04-11T14:19:11.603Z,0.88
2023-04-11T14:21:38.368Z,0.95
2023-04-11T14:24:05.769Z,1.20
2023-04-11T14:26:32.492Z,0.65
2023-04-11T14:28:59.606Z,0.77
2023-04-11T14:31:26.478Z,1.05
2023-04-11T14:33:53.751Z,1.00
2023-04-11T14:36:21.265Z,0.90
2023-04-11T14:38:49.110Z,1.10
2023-04-11T14:41:15.863Z,0.85
2023-04-11T14:43:42.576Z,0.80
2023-04-11T14:46:09.380Z,1.25
2023-04-11T14:48:36.572Z,0.98
2023-04-11T14:51:03.926Z,1.10
2023-04-11T14:53:31.195Z,1.05
2023-04-11T14:55:58.058Z,0.70
2023-04-11T14:58:24.819Z,0.90
2023-04-11T15:00:52.164Z,0.60
2023-04-11T15:03:19.153Z,0.65
2023-04-11T15:05:46.032Z,0.75
2023-04-11T15:08:13.590Z,0.80
2023-04-11T15:10:40.553Z,0.50
2023-04-11T15:13:09.120Z,0.88
2023-04-11T15:15:36.371Z,0.85
2023-04-11T15:18:21.644Z,0.70
2023-04-11T15:20:49.653Z,0.68
2023-04-11T15:23:18.894Z,0.70
2023-04-11T15:25:56.993Z,0.47
2023-04-11T15:28:24.849Z,0.43
2023-04-11T15:30:53.092Z,0.60
2023-04-11T15:33:22.052Z,0.60
2023-04-11T15:35:48.862Z,0.70
2023-04-11T15:38:16.567Z,0.68
2023-04-11T15:40:43.678Z,0.60
2023-04-11T15:43:10.631Z,0.70
2023-04-11T15:45:38.585Z,0.93
2023-04-11T15:48:05.592Z,0.98
2023-04-11T15:50:32.747Z,0.90
2023-04-11T15:52:59.481Z,0.77
2023-04-11T15:55:26.434Z,0.88
2023-04-11T15:57:53.443Z,0.90
2023-04-11T16:00:22.402Z,0.60
2023-04-11T16:02:50.142Z,0.70
2023-04-11T16:05:17.511Z,1.17
2023-04-11T16:07:44.426Z,1.70
2023-04-11T16:10:11.682Z,1.45
2023-04-11T16:12:38.639Z,1.08
2023-04-11T16:15:07.188Z,0.90
2023-04-11T16:17:34.106Z,1.00
2023-04-11T16:20:01.405Z,1.02
2023-04-11T16:22:28.368Z,1.10
2023-04-11T16:24:56.282Z,0.80
2023-04-11T16:27:23.158Z,0.75
2023-04-11T16:29:51.039Z,0.80
2023-04-11T16:32:17.770Z,0.70
2023-04-11T16:34:44.517Z,0.77
2023-04-11T16:37:11.886Z,0.90
2023-04-11T16:39:38.934Z,0.80
2023-04-11T16:42:06.075Z,0.95
2023-04-11T16:44:33.647Z,0.82
2023-04-11T16:47:01.090Z,0.85
2023-04-11T16:49:28.125Z,0.80
2023-04-11T16:51:56.148Z,1.33
2023-04-11T16:54:23.294Z,3.65
2023-04-11T16:56:51.021Z,1.27
2023-04-11T16:59:18.813Z,1.13
2023-04-11T17:01:45.797Z,1.73
2023-04-11T17:04:13.850Z,1.30
2023-04-11T17:06:41.330Z,1.67
2023-04-11T17:09:09.426Z,1.40
2023-04-11T17:11:43.941Z,1.63
2023-04-11T17:14:11.031Z,1.80
2023-04-11T17:16:38.244Z,1.42
2023-04-11T17:19:05.236Z,1.73
2023-04-11T17:21:32.618Z,2.05
2023-04-11T17:23:59.956Z,1.30
2023-04-11T17:26:27.068Z,1.55
2023-04-11T17:28:54.153Z,1.30
2023-04-11T17:31:21.662Z,1.40
2023-04-11T17:33:48.888Z,0.98
2023-04-11T17:36:15.676Z,1.30
2023-04-11T17:38:43.518Z,0.80
2023-04-11T17:41:14.922Z,0.93
2023-04-11T17:43:43.687Z,1.17
2023-04-11T17:46:12.277Z,1.20
2023-04-11T17:48:39.581Z,1.13
2023-04-11T17:51:06.781Z,1.10
2023-04-11T17:53:33.729Z,1.10
2023-04-11T17:56:05.901Z,1.05
2023-04-11T17:58:33.201Z,0.87
2023-04-11T18:01:00.118Z,1.20
2023-04-11T18:03:27.222Z,0.98
2023-04-11T18:05:54.944Z,1.17
2023-04-11T18:08:36.198Z,1.60
2023-04-11T18:11:09.791Z,1.20
2023-04-11T18:13:36.702Z,1.23
2023-04-11T18:16:04.283Z,1.30
2023-04-11T18:18:31.196Z,1.63
2023-04-11T18:21:07.087Z,2.10
2023-04-11T18:23:34.230Z,2.72
2023-04-11T18:26:01.609Z,1.92
2023-04-11T18:28:28.679Z,1.65
2023-04-11T18:30:55.551Z,2.00
2023-04-11T18:33:22.377Z,2.50
2023-04-11T18:35:49.198Z,2.17
2023-04-11T18:38:16.887Z,2.30
2023-04-11T18:40:43.822Z,2.40
2023-04-11T18:43:10.692Z,2.08
2023-04-11T18:45:38.398Z,1.75
2023-04-11T18:50:38.628Z,1.52
2023-04-11T18:53:08.979Z,1.13
2023-04-11T18:55:38.211Z,1.13
2023-04-11T18:58:08.996Z,1.33
2023-04-11T19:00:36.558Z,1.30
2023-04-11T19:03:05.001Z,1.25
2023-04-11T19:05:32.243Z,1.50
2023-04-11T19:08:00.125Z,1.75
2023-04-11T19:10:26.911Z,1.50
2023-04-11T19:12:53.683Z,1.58
2023-04-11T19:15:20.618Z,1.30
2023-04-11T19:17:47.518Z,1.55
2023-04-11T19:20:15.724Z,1.33
2023-04-11T19:22:42.850Z,1.85
2023-04-11T19:25:11.086Z,1.42
2023-04-11T19:27:42.285Z,1.58
2023-04-11T19:30:11.100Z,1.60
2023-04-11T19:32:40.616Z,1.30
2023-04-11T19:35:10.350Z,1.55
2023-04-11T19:37:37.872Z,1.75
2023-04-11T19:40:15.392Z,1.58
2023-04-11T19:42:43.029Z,1.70
2023-04-11T19:45:11.448Z,1.70
2023-04-11T19:47:39.853Z,1.60
2023-04-11T19:50:14.205Z,1.20
2023-04-11T19:52:42.311Z,1.40
2023-04-11T19:55:09.935Z,2.53
2023-04-11T19:57:40.896Z,2.58
2023-04-11T20:00:16.230Z,2.20
2023-04-11T20:02:50.387Z,2.65
2023-04-11T20:05:19.117Z,2.90
2023-04-11T20:07:46.606Z,3.70
2023-04-11T20:10:14.478Z,2.97
2023-04-11T20:12:41.437Z,2.92
2023-04-11T20:15:09.215Z,2.78
2023-04-11T20:17:36.206Z,2.28
2023-04-11T20:20:05.896Z,2.13
2023-04-11T20:22:33.111Z,1.88
2023-04-11T20:24:59.848Z,1.85
2023-04-11T20:27:28.023Z,2.00
2023-04-11T20:29:56.580Z,1.77
2023-04-11T20:32:23.384Z,1.80
2023-04-11T20:34:50.441Z,2.10
2023-04-11T20:37:18.893Z,1.52
2023-04-11T20:39:46.114Z,2.30
2023-04-11T20:42:13.599Z,2.17
2023-04-11T20:44:41.594Z,2.47
2023-04-11T20:47:09.094Z,1.75
2023-04-11T20:49:36.090Z,1.75
2023-04-11T20:52:02.862Z,2.05
2023-04-11T20:54:29.983Z,3.45
2023-04-11T20:56:56.991Z,4.35
2023-04-11T20:59:23.772Z,4.80
2023-04-11T21:01:50.764Z,5.88
2023-04-11T21:04:18.720Z,6.43
2023-04-11T21:06:46.378Z,5.45
2023-04-11T21:09:13.135Z,6.15
2023-04-11T21:11:39.842Z,5.63
2023-04-11T21:14:06.965Z,4.13
2023-04-11T21:16:34.024Z,5.28
2023-04-11T21:19:00.957Z,5.10
2023-04-11T21:21:28.208Z,5.25
2023-04-11T21:23:56.172Z,4.28
2023-04-11T21:26:23.612Z,5.00
2023-04-11T21:28:50.513Z,5.35
2023-04-11T21:31:17.418Z,3.88
2023-04-11T21:33:46.166Z,3.85
2023-04-11T21:36:12.960Z,3.33
2023-04-11T21:38:41.009Z,2.97
2023-04-11T21:41:08.086Z,2.72
2023-04-11T21:43:34.904Z,2.85
2023-04-11T21:46:01.697Z,3.53
2023-04-11T21:48:28.480Z,3.80
2023-04-11T21:50:55.641Z,3.33
2023-04-11T21:53:22.375Z,4.03
2023-04-11T21:55:49.432Z,4.55
2023-04-11T21:58:28.564Z,4.32
2023-04-11T22:00:56.179Z,4.40
2023-04-11T22:03:23.677Z,4.85
2023-04-11T22:05:52.177Z,4.80
2023-04-11T22:08:22.101Z,4.97
2023-04-11T22:10:50.516Z,4.60
2023-04-11T22:13:20.670Z,4.30
2023-04-11T22:16:05.120Z,4.20
2023-04-11T22:18:38.176Z,4.70
2023-04-11T22:21:09.003Z,5.63
2023-04-11T22:23:36.101Z,5.30
2023-04-11T22:26:03.585Z,6.03
2023-04-11T22:28:30.360Z,5.35
2023-04-11T22:30:57.773Z,5.53
2023-04-11T22:33:24.540Z,4.55
2023-04-11T22:35:51.471Z,5.10
2023-04-11T22:38:18.229Z,4.43
2023-04-11T22:40:45.024Z,5.70
2023-04-11T22:43:12.279Z,3.58
2023-04-11T22:45:39.182Z,3.70
2023-04-11T22:48:06.281Z,3.70
2023-04-11T22:50:38.900Z,3.17
2023-04-11T22:53:05.839Z,3.20
2023-04-11T22:55:34.265Z,3.30
2023-04-11T22:58:03.442Z,3.67
2023-04-11T23:00:31.389Z,4.85
2023-04-11T23:02:59.897Z,7.25
2023-04-11T23:05:26.861Z,4.18
2023-04-11T23:07:53.629Z,3.50
2023-04-11T23:10:20.433Z,3.95
2023-04-11T23:12:48.009Z,3.75
2023-04-11T23:15:15.201Z,4.47
2023-04-11T23:17:42.101Z,3.85
2023-04-11T23:20:11.059Z,3.55
2023-04-11T23:22:38.005Z,4.10
2023-04-11T23:25:05.103Z,3.80
2023-04-11T23:27:32.715Z,3.17
2023-04-11T23:29:59.990Z,3.35
2023-04-11T23:32:26.901Z,3.72
2023-04-11T23:34:54.158Z,3.83
2023-04-11T23:37:21.288Z,4.40
2023-04-11T23:39:48.048Z,3.85
2023-04-11T23:42:15.026Z,4.00
2023-04-11T23:44:41.765Z,3.90
2023-04-11T23:47:08.892Z,3.85
2023-04-11T23:49:35.732Z,3.40
2023-04-11T23:52:02.803Z,3.72
2023-04-11T23:54:30.470Z,5.57
2023-04-11T23:56:58.427Z,4.75
2023-04-11T23:59:25.294Z,5.32
